MSC Nuria — 3ESE2 — position and weather

sailwx.info

Track history (hours):
 
Tides and Currents Weather Stations Pressure Air Temp Water Temp Dewpoint Dewpoint Depression Visibility Wind Speed Wind Dir Waves Ship Positions

MSC Nuria

Last reported at 2015-Apr-30 09:32 UTC. Time now 2015-May-22 19:07 UTC.
Position N 49°55' W 003°12'.
Warning: this ship's position is 22 days out of date.

Length 275 m; draft 10 m.

Type: Ship (hazmat cat A). MMSI: 370272977.

Date/timePositionNaut miles runAvg speedWind from/ knotsBaromVisibWave heightAir tempDewpointWater temp
2015-Apr-30 09:32N 49°55' W 003°12'1615.9
2015-Apr-30 08:31N 50°00' W 002°48'8814.0
2015-Apr-30 02:15N 50°24' W 000°37'4215.6
2015-Apr-29 23:33N 50°34' E 000°28'1515.1
2015-Apr-29 22:33N 50°42' E 000°48'1414.1
2015-Apr-29 21:32N 50°50' E 001°07'1313.2
2015-Apr-29 20:33N 50°58' E 001°23'1313.1
2015-Apr-29 19:33N 51°07' E 001°38'1515.0
2015-Apr-29 18:33N 51°19' E 001°53'1212.3
2015-Apr-29 17:34N 51°22' E 002°12'1414.5
2015-Apr-29 16:33N 51°22' E 002°35'1312.6
2015-Apr-29 15:33N 51°23' E 002°55'1716.7
2015-Apr-29 14:33N 51°24' E 003°22'1212.4
2015-Apr-29 13:34N 51°26' E 003°41'1010.5
2015-Apr-29 12:34N 51°25' E 003°58'10 9.6
2015-Apr-29 11:33N 51°23' E 004°13'3 3.3
2015-Apr-29 10:34N 51°21' E 004°17'0 0.5
2015-Apr-29 09:33N 51°21' E 004°18'2 1.5
2015-Apr-29 08:31N 51°19' E 004°19'0 0.0
2015-Apr-29 07:30N 51°19' E 004°19'0 0.0
2015-Apr-29 06:33N 51°19' E 004°19'0 0.0
2015-Apr-29 05:30N 51°19' E 004°19'0 0.0
2015-Apr-29 04:23N 51°19' E 004°19'0 0.0
2015-Apr-29 03:29N 51°19' E 004°19'0 0.0
2015-Apr-29 02:28N 51°19' E 004°19'0 0.0
2015-Apr-29 01:31N 51°19' E 004°19'0 0.0
2015-Apr-29 00:30N 51°19' E 004°19'0 0.0
2015-Apr-28 23:30N 51°19' E 004°19'0 0.0
2015-Apr-28 22:32N 51°19' E 004°19'0 0.0
2015-Apr-28 21:32N 51°19' E 004°19'0 0.0
2015-Apr-28 20:29N 51°19' E 004°19'0 0.0
2015-Apr-28 19:31N 51°19' E 004°19'0 0.0
2015-Apr-28 18:31N 51°19' E 004°19'0 0.0
2015-Apr-28 17:33N 51°19' E 004°19'0 0.0
2015-Apr-28 16:33N 51°19' E 004°19'0 0.0
2015-Apr-28 15:29N 51°19' E 004°19'0 0.0
2015-Apr-28 14:32N 51°19' E 004°19'0 0.0
2015-Apr-28 13:32N 51°19' E 004°19'0 0.0
2015-Apr-28 12:31N 51°19' E 004°19'0 0.0
2015-Apr-28 11:33N 51°19' E 004°19'0 0.0
2015-Apr-28 10:33N 51°19' E 004°19'0 0.0
2015-Apr-28 09:33N 51°19' E 004°19'0 0.0
2015-Apr-28 08:33N 51°19' E 004°19'0 0.0
2015-Apr-28 07:33N 51°19' E 004°19'0 0.0
2015-Apr-28 06:33N 51°19' E 004°19'0 0.0
2015-Apr-28 05:33N 51°19' E 004°19'0 0.0
2015-Apr-28 04:33N 51°19' E 004°19'0 0.0
2015-Apr-28 03:33N 51°19' E 004°19'0 0.0
2015-Apr-28 02:33N 51°19' E 004°19'0 0.0
2015-Apr-28 01:33N 51°19' E 004°19'0 0.0
2015-Apr-28 00:33N 51°19' E 004°19'0 0.0
2015-Apr-27 23:34N 51°19' E 004°19'1 0.8
2015-Apr-27 22:33N 51°20' E 004°18'1 1.0
2015-Apr-27 21:33N 51°21' E 004°17'0 0.5
2015-Apr-27 20:34N 51°21' E 004°17'5 5.1
2015-Apr-27 19:33N 51°22' E 004°09'7 7.3
2015-Apr-27 18:34N 51°24' E 003°58'9 9.4
2015-Apr-27 17:33N 51°23' E 003°43'8 8.1
2015-Apr-27 16:33N 51°25' E 003°30'1615.7
2015-Apr-27 15:34N 51°24' E 003°05'1413.6
2015-Apr-27 14:34N 51°22' E 002°43'5 4.8
2015-Apr-27 13:28N 51°24' E 002°36'0 0.0
2015-Apr-27 12:17N 51°24' E 002°36'0 0.0
2015-Apr-27 11:29N 51°24' E 002°36'0 0.0
2015-Apr-27 07:12N 51°24' E 002°36'0 0.0
2015-Apr-27 06:21N 51°24' E 002°36'0 0.0
2015-Apr-27 04:17N 51°24' E 002°36'0 0.0
2015-Apr-27 03:31N 51°24' E 002°36'0 0.0
2015-Apr-27 02:31N 51°24' E 002°36'0 0.0
2015-Apr-27 01:31N 51°24' E 002°36'5 5.4
2015-Apr-27 00:33N 51°22' E 002°28'1212.1
2015-Apr-26 23:34N 51°19' E 002°09'1313.4
2015-Apr-26 22:34N 51°28' E 001°54'1212.3
2015-Apr-26 21:33N 51°28' E 001°34'1111.0
2015-Apr-26 20:34N 51°29' E 001°16'1413.5
2015-Apr-26 19:33N 51°29' E 000°54'1515.0
2015-Apr-26 18:33N 51°30' E 000°30'7 7.0
2015-Apr-26 17:33N 51°28' E 000°20'0 0.1
2015-Apr-26 16:33N 51°28' E 000°20'0 0.0
2015-Apr-26 15:33N 51°28' E 000°20'0 0.0
2015-Apr-26 14:34N 51°28' E 000°20'0 0.0
2015-Apr-26 13:33N 51°28' E 000°20'0 0.0
2015-Apr-26 12:33N 51°28' E 000°20'0 0.0
2015-Apr-26 11:33N 51°28' E 000°20'0 0.0
2015-Apr-26 10:33N 51°28' E 000°20'0 0.0
2015-Apr-26 09:33N 51°28' E 000°20'0 0.0
2015-Apr-26 08:33N 51°28' E 000°20'0 0.0
2015-Apr-26 07:34N 51°28' E 000°20'0 0.0
2015-Apr-26 06:33N 51°28' E 000°20'0 0.0
2015-Apr-26 05:33N 51°28' E 000°20'0 0.0
2015-Apr-26 04:34N 51°28' E 000°20'0 0.0
2015-Apr-26 03:34N 51°28' E 000°20'0 0.0
2015-Apr-26 02:34N 51°28' E 000°20'0 0.0
2015-Apr-26 01:34N 51°28' E 000°20'0 0.0
2015-Apr-26 00:34N 51°28' E 000°20'0 0.0
2015-Apr-25 23:34N 51°28' E 000°20'0 0.0
2015-Apr-25 22:33N 51°28' E 000°20'0 0.0
2015-Apr-25 21:33N 51°28' E 000°20'0 0.0
2015-Apr-25 20:34N 51°28' E 000°20'0 0.0
2015-Apr-25 19:34N 51°28' E 000°20'0 0.0
2015-Apr-25 18:34N 51°28' E 000°20'1 1.1
2015-Apr-25 17:34N 51°27' E 000°21'9 9.4
2015-Apr-25 16:34N 51°30' E 000°35'1212.0
2015-Apr-25 15:33N 51°29' E 000°55'1212.3
2015-Apr-25 14:33N 51°34' E 001°13'1312.7
2015-Apr-25 13:33N 51°43' E 001°28'1211.6
2015-Apr-25 12:33N 51°51' E 001°41'1110.6
2015-Apr-25 11:33N 51°51' E 001°58'4519.0
2015-Apr-25 09:13N 52°03' E 003°07'1319.1
2015-Apr-25 08:32N 52°03' E 003°28'1515.0
2015-Apr-25 07:33N 52°02' E 003°52'9 9.0
2015-Apr-25 06:33N 51°58' E 004°05'1 0.5
2015-Apr-25 05:30N 51°58' E 004°04'0 0.0
2015-Apr-25 04:33N 51°58' E 004°04'0 0.0
2015-Apr-25 03:32N 51°58' E 004°04'0 0.0
2015-Apr-25 02:32N 51°58' E 004°04'0 0.0
2015-Apr-25 01:31N 51°58' E 004°04'0 0.0
2015-Apr-25 00:28N 51°58' E 004°04'0 0.0
2015-Apr-24 23:31N 51°58' E 004°04'0 0.0
2015-Apr-24 22:33N 51°58' E 004°04'0 0.0
2015-Apr-24 21:30N 51°58' E 004°04'0 0.0
2015-Apr-24 20:32N 51°58' E 004°04'0 0.0
2015-Apr-24 19:32N 51°58' E 004°04'0 0.0
2015-Apr-24 18:31N 51°58' E 004°04'0 0.0
2015-Apr-24 17:31N 51°58' E 004°04'0 0.0
2015-Apr-24 16:31N 51°58' E 004°04'0 0.0
2015-Apr-24 15:33N 51°58' E 004°04'0 0.0
2015-Apr-24 14:33N 51°58' E 004°04'0 0.0
2015-Apr-24 13:32N 51°58' E 004°04'0 0.0
2015-Apr-24 12:29N 51°58' E 004°04'0 0.0
2015-Apr-24 11:31N 51°58' E 004°04'0 0.0
2015-Apr-24 10:31N 51°58' E 004°04'0 0.0
2015-Apr-24 09:31N 51°58' E 004°04'0 0.0
2015-Apr-24 08:30N 51°58' E 004°04'0 0.0
2015-Apr-24 07:33N 51°58' E 004°04'0 0.0
2015-Apr-24 06:32N 51°58' E 004°04'0 0.0
2015-Apr-24 05:32N 51°58' E 004°04'0 0.0
2015-Apr-24 04:31N 51°58' E 004°04'0 0.0
2015-Apr-24 03:31N 51°58' E 004°04'0 0.0
2015-Apr-24 02:31N 51°58' E 004°04'0 0.0
2015-Apr-24 01:33N 51°58' E 004°04'0 0.0
2015-Apr-24 00:33N 51°58' E 004°04'0 0.0
2015-Apr-23 23:32N 51°58' E 004°04'1 0.9
2015-Apr-23 22:33N 51°58' E 004°05'9 9.0
2015-Apr-23 21:33N 51°60' E 003°51'4 4.1
2015-Apr-23 20:33N 51°59' E 003°44'1212.0
2015-Apr-23 19:32N 51°56' E 003°25'1716.2
2015-Apr-23 18:29N 51°51' E 002°59'1616.8
2015-Apr-23 17:33N 51°43' E 002°37'1817.8
2015-Apr-23 16:33N 51°31' E 002°15'1818.4
2015-Apr-23 15:33N 51°18' E 001°56'2120.6
2015-Apr-23 14:33N 51°02' E 001°35'2520.9
2015-Apr-23 13:21N 50°39' E 001°17'1720.8
2015-Apr-23 12:32N 50°29' E 000°56'2121.8
2015-Apr-23 11:33N 50°23' E 000°24'6621.8
2015-Apr-23 08:31N 50°08' W 001°18'1920.1
2015-Apr-23 07:33N 50°03' W 001°46'2118.9
2015-Apr-23 06:26N 49°57' W 002°18'3618.0
2015-Apr-23 04:28N 49°45' W 003°10'  
2015-Apr-20 10:17N 40°09' W 031°09'  
Track history (hours):
 
Tides and Currents Weather Stations Pressure Air Temp Water Temp Dewpoint Dewpoint Depression Visibility Wind Speed Wind Dir Waves Ship Positions

MSC Nuria

Last reported at 2015-Apr-30 09:32 UTC. Time now 2015-May-22 19:07 UTC.
Position N 49°55' W 003°12'.
Warning: this ship's position is 22 days out of date.

Length 275 m; draft 10 m.

Type: Ship (hazmat cat A). MMSI: 370272977.

Date/timePositionNaut miles runAvg speedWind from/ knotsBaromVisibWave heightAir tempDewpointWater temp
2015-Apr-30 09:32N 49°55' W 003°12'1615.9
2015-Apr-30 08:31N 50°00' W 002°48'8814.0
2015-Apr-30 02:15N 50°24' W 000°37'4215.6
2015-Apr-29 23:33N 50°34' E 000°28'1515.1
2015-Apr-29 22:33N 50°42' E 000°48'1414.1
2015-Apr-29 21:32N 50°50' E 001°07'1313.2
2015-Apr-29 20:33N 50°58' E 001°23'1313.1
2015-Apr-29 19:33N 51°07' E 001°38'1515.0
2015-Apr-29 18:33N 51°19' E 001°53'1212.3
2015-Apr-29 17:34N 51°22' E 002°12'1414.5
2015-Apr-29 16:33N 51°22' E 002°35'1312.6
2015-Apr-29 15:33N 51°23' E 002°55'1716.7
2015-Apr-29 14:33N 51°24' E 003°22'1212.4
2015-Apr-29 13:34N 51°26' E 003°41'1010.5
2015-Apr-29 12:34N 51°25' E 003°58'10 9.6
2015-Apr-29 11:33N 51°23' E 004°13'3 3.3
2015-Apr-29 10:34N 51°21' E 004°17'0 0.5
2015-Apr-29 09:33N 51°21' E 004°18'2 1.5
2015-Apr-29 08:31N 51°19' E 004°19'0 0.0
2015-Apr-29 07:30N 51°19' E 004°19'0 0.0
2015-Apr-29 06:33N 51°19' E 004°19'0 0.0
2015-Apr-29 05:30N 51°19' E 004°19'0 0.0
2015-Apr-29 04:23N 51°19' E 004°19'0 0.0
2015-Apr-29 03:29N 51°19' E 004°19'0 0.0
2015-Apr-29 02:28N 51°19' E 004°19'0 0.0
2015-Apr-29 01:31N 51°19' E 004°19'0 0.0
2015-Apr-29 00:30N 51°19' E 004°19'0 0.0
2015-Apr-28 23:30N 51°19' E 004°19'0 0.0
2015-Apr-28 22:32N 51°19' E 004°19'0 0.0
2015-Apr-28 21:32N 51°19' E 004°19'0 0.0
2015-Apr-28 20:29N 51°19' E 004°19'0 0.0
2015-Apr-28 19:31N 51°19' E 004°19'0 0.0
2015-Apr-28 18:31N 51°19' E 004°19'0 0.0
2015-Apr-28 17:33N 51°19' E 004°19'0 0.0
2015-Apr-28 16:33N 51°19' E 004°19'0 0.0
2015-Apr-28 15:29N 51°19' E 004°19'0 0.0
2015-Apr-28 14:32N 51°19' E 004°19'0 0.0
2015-Apr-28 13:32N 51°19' E 004°19'0 0.0
2015-Apr-28 12:31N 51°19' E 004°19'0 0.0
2015-Apr-28 11:33N 51°19' E 004°19'0 0.0
2015-Apr-28 10:33N 51°19' E 004°19'0 0.0
2015-Apr-28 09:33N 51°19' E 004°19'0 0.0
2015-Apr-28 08:33N 51°19' E 004°19'0 0.0
2015-Apr-28 07:33N 51°19' E 004°19'0 0.0
2015-Apr-28 06:33N 51°19' E 004°19'0 0.0
2015-Apr-28 05:33N 51°19' E 004°19'0 0.0
2015-Apr-28 04:33N 51°19' E 004°19'0 0.0
2015-Apr-28 03:33N 51°19' E 004°19'0 0.0
2015-Apr-28 02:33N 51°19' E 004°19'0 0.0
2015-Apr-28 01:33N 51°19' E 004°19'0 0.0
2015-Apr-28 00:33N 51°19' E 004°19'0 0.0
2015-Apr-27 23:34N 51°19' E 004°19'1 0.8
2015-Apr-27 22:33N 51°20' E 004°18'1 1.0
2015-Apr-27 21:33N 51°21' E 004°17'0 0.5
2015-Apr-27 20:34N 51°21' E 004°17'5 5.1
2015-Apr-27 19:33N 51°22' E 004°09'7 7.3
2015-Apr-27 18:34N 51°24' E 003°58'9 9.4
2015-Apr-27 17:33N 51°23' E 003°43'8 8.1
2015-Apr-27 16:33N 51°25' E 003°30'1615.7
2015-Apr-27 15:34N 51°24' E 003°05'1413.6
2015-Apr-27 14:34N 51°22' E 002°43'5 4.8
2015-Apr-27 13:28N 51°24' E 002°36'0 0.0
2015-Apr-27 12:17N 51°24' E 002°36'0 0.0
2015-Apr-27 11:29N 51°24' E 002°36'0 0.0
2015-Apr-27 07:12N 51°24' E 002°36'0 0.0
2015-Apr-27 06:21N 51°24' E 002°36'0 0.0
2015-Apr-27 04:17N 51°24' E 002°36'0 0.0
2015-Apr-27 03:31N 51°24' E 002°36'0 0.0
2015-Apr-27 02:31N 51°24' E 002°36'0 0.0
2015-Apr-27 01:31N 51°24' E 002°36'5 5.4
2015-Apr-27 00:33N 51°22' E 002°28'1212.1
2015-Apr-26 23:34N 51°19' E 002°09'1313.4
2015-Apr-26 22:34N 51°28' E 001°54'1212.3
2015-Apr-26 21:33N 51°28' E 001°34'1111.0
2015-Apr-26 20:34N 51°29' E 001°16'1413.5
2015-Apr-26 19:33N 51°29' E 000°54'1515.0
2015-Apr-26 18:33N 51°30' E 000°30'7 7.0
2015-Apr-26 17:33N 51°28' E 000°20'0 0.1
2015-Apr-26 16:33N 51°28' E 000°20'0 0.0
2015-Apr-26 15:33N 51°28' E 000°20'0 0.0
2015-Apr-26 14:34N 51°28' E 000°20'0 0.0
2015-Apr-26 13:33N 51°28' E 000°20'0 0.0
2015-Apr-26 12:33N 51°28' E 000°20'0 0.0
2015-Apr-26 11:33N 51°28' E 000°20'0 0.0
2015-Apr-26 10:33N 51°28' E 000°20'0 0.0
2015-Apr-26 09:33N 51°28' E 000°20'0 0.0
2015-Apr-26 08:33N 51°28' E 000°20'0 0.0
2015-Apr-26 07:34N 51°28' E 000°20'0 0.0
2015-Apr-26 06:33N 51°28' E 000°20'0 0.0
2015-Apr-26 05:33N 51°28' E 000°20'0 0.0
2015-Apr-26 04:34N 51°28' E 000°20'0 0.0
2015-Apr-26 03:34N 51°28' E 000°20'0 0.0
2015-Apr-26 02:34N 51°28' E 000°20'0 0.0
2015-Apr-26 01:34N 51°28' E 000°20'0 0.0
2015-Apr-26 00:34N 51°28' E 000°20'0 0.0
2015-Apr-25 23:34N 51°28' E 000°20'0 0.0
2015-Apr-25 22:33N 51°28' E 000°20'0 0.0
2015-Apr-25 21:33N 51°28' E 000°20'0 0.0
2015-Apr-25 20:34N 51°28' E 000°20'0 0.0
2015-Apr-25 19:34N 51°28' E 000°20'0 0.0
2015-Apr-25 18:34N 51°28' E 000°20'1 1.1
2015-Apr-25 17:34N 51°27' E 000°21'9 9.4
2015-Apr-25 16:34N 51°30' E 000°35'1212.0
2015-Apr-25 15:33N 51°29' E 000°55'1212.3
2015-Apr-25 14:33N 51°34' E 001°13'1312.7
2015-Apr-25 13:33N 51°43' E 001°28'1211.6
2015-Apr-25 12:33N 51°51' E 001°41'1110.6
2015-Apr-25 11:33N 51°51' E 001°58'4519.0
2015-Apr-25 09:13N 52°03' E 003°07'1319.1
2015-Apr-25 08:32N 52°03' E 003°28'1515.0
2015-Apr-25 07:33N 52°02' E 003°52'9 9.0
2015-Apr-25 06:33N 51°58' E 004°05'1 0.5
2015-Apr-25 05:30N 51°58' E 004°04'0 0.0
2015-Apr-25 04:33N 51°58' E 004°04'0 0.0
2015-Apr-25 03:32N 51°58' E 004°04'0 0.0
2015-Apr-25 02:32N 51°58' E 004°04'0 0.0
2015-Apr-25 01:31N 51°58' E 004°04'0 0.0
2015-Apr-25 00:28N 51°58' E 004°04'0 0.0
2015-Apr-24 23:31N 51°58' E 004°04'0 0.0
2015-Apr-24 22:33N 51°58' E 004°04'0 0.0
2015-Apr-24 21:30N 51°58' E 004°04'0 0.0
2015-Apr-24 20:32N 51°58' E 004°04'0 0.0
2015-Apr-24 19:32N 51°58' E 004°04'0 0.0
2015-Apr-24 18:31N 51°58' E 004°04'0 0.0
2015-Apr-24 17:31N 51°58' E 004°04'0 0.0
2015-Apr-24 16:31N 51°58' E 004°04'0 0.0
2015-Apr-24 15:33N 51°58' E 004°04'0 0.0
2015-Apr-24 14:33N 51°58' E 004°04'0 0.0
2015-Apr-24 13:32N 51°58' E 004°04'0 0.0
2015-Apr-24 12:29N 51°58' E 004°04'0 0.0
2015-Apr-24 11:31N 51°58' E 004°04'0 0.0
2015-Apr-24 10:31N 51°58' E 004°04'0 0.0
2015-Apr-24 09:31N 51°58' E 004°04'0 0.0
2015-Apr-24 08:30N 51°58' E 004°04'0 0.0
2015-Apr-24 07:33N 51°58' E 004°04'0 0.0
2015-Apr-24 06:32N 51°58' E 004°04'0 0.0
2015-Apr-24 05:32N 51°58' E 004°04'0 0.0
2015-Apr-24 04:31N 51°58' E 004°04'0 0.0
2015-Apr-24 03:31N 51°58' E 004°04'0 0.0
2015-Apr-24 02:31N 51°58' E 004°04'0 0.0
2015-Apr-24 01:33N 51°58' E 004°04'0 0.0
2015-Apr-24 00:33N 51°58' E 004°04'0 0.0
2015-Apr-23 23:32N 51°58' E 004°04'1 0.9
2015-Apr-23 22:33N 51°58' E 004°05'9 9.0
2015-Apr-23 21:33N 51°60' E 003°51'4 4.1
2015-Apr-23 20:33N 51°59' E 003°44'1212.0
2015-Apr-23 19:32N 51°56' E 003°25'1716.2
2015-Apr-23 18:29N 51°51' E 002°59'1616.8
2015-Apr-23 17:33N 51°43' E 002°37'1817.8
2015-Apr-23 16:33N 51°31' E 002°15'1818.4
2015-Apr-23 15:33N 51°18' E 001°56'2120.6
2015-Apr-23 14:33N 51°02' E 001°35'2520.9
2015-Apr-23 13:21N 50°39' E 001°17'1720.8
2015-Apr-23 12:32N 50°29' E 000°56'2121.8
2015-Apr-23 11:33N 50°23' E 000°24'6621.8
2015-Apr-23 08:31N 50°08' W 001°18'1920.1
2015-Apr-23 07:33N 50°03' W 001°46'2118.9
2015-Apr-23 06:26N 49°57' W 002°18'3618.0
2015-Apr-23 04:28N 49°45' W 003°10'  
2015-Apr-20 10:17N 40°09' W 031°09'  

Dump ship's entire track history